sensor_id;sensor_type;location;lat;lon;timestamp;pressure;altitude;pressure_sealevel;temperature;humidity
50356;BME280;36264;51.296;-0.602;2022-08-04T00:00:17;101161.75;;;19.29;70.42
50356;BME280;36264;51.296;-0.602;2022-08-04T00:05:38;101160.88;;;19.28;70.27
50356;BME280;36264;51.296;-0.602;2022-08-04T00:10:48;101161.66;;;19.30;70.28
50356;BME280;36264;51.296;-0.602;2022-08-04T00:13:14;101162.03;;;19.24;70.73
50356;BME280;36264;51.296;-0.602;2022-08-04T00:15:41;101158.53;;;19.24;70.67
50356;BME280;36264;51.296;-0.602;2022-08-04T00:18:08;101152.53;;;19.22;70.80
50356;BME280;36264;51.296;-0.602;2022-08-04T00:20:40;101160.59;;;19.18;70.96
50356;BME280;36264;51.296;-0.602;2022-08-04T00:23:07;101158.06;;;19.17;70.55
50356;BME280;36264;51.296;-0.602;2022-08-04T00:25:33;101160.88;;;19.14;70.46
50356;BME280;36264;51.296;-0.602;2022-08-04T00:28:01;101169.66;;;19.14;70.83
50356;BME280;36264;51.296;-0.602;2022-08-04T00:30:27;101167.19;;;19.11;71.04
50356;BME280;36264;51.296;-0.602;2022-08-04T00:32:53;101168.22;;;19.09;71.21
50356;BME280;36264;51.296;-0.602;2022-08-04T00:35:21;101169.16;;;19.08;71.15
50356;BME280;36264;51.296;-0.602;2022-08-04T00:37:48;101172.66;;;19.08;70.98
50356;BME280;36264;51.296;-0.602;2022-08-04T00:48:23;101165.84;;;19.04;71.95
50356;BME280;36264;51.296;-0.602;2022-08-04T00:56:43;101164.25;;;19.01;70.86
50356;BME280;36264;51.296;-0.602;2022-08-04T01:16:16;101155.50;;;19.01;69.68
50356;BME280;36264;51.296;-0.602;2022-08-04T01:18:54;101160.59;;;19.04;69.59
50356;BME280;36264;51.296;-0.602;2022-08-04T01:29:48;101149.22;;;19.04;69.02
50356;BME280;36264;51.296;-0.602;2022-08-04T01:32:20;101149.03;;;19.07;69.21
50356;BME280;36264;51.296;-0.602;2022-08-04T01:35:03;101155.22;;;19.06;68.87
50356;BME280;36264;51.296;-0.602;2022-08-04T01:40:16;101143.19;;;19.01;69.02
50356;BME280;36264;51.296;-0.602;2022-08-04T01:42:42;101145.72;;;19.03;68.89
50356;BME280;36264;51.296;-0.602;2022-08-04T01:45:10;101151.09;;;19.01;69.02
50356;BME280;36264;51.296;-0.602;2022-08-04T01:47:40;101160.78;;;19.01;69.29
50356;BME280;36264;51.296;-0.602;2022-08-04T01:50:11;101154.19;;;18.94;68.84
50356;BME280;36264;51.296;-0.602;2022-08-04T01:52:39;101162.84;;;18.96;68.70
50356;BME280;36264;51.296;-0.602;2022-08-04T01:55:08;101163.94;;;18.92;68.53
50356;BME280;36264;51.296;-0.602;2022-08-04T01:57:36;101154.66;;;18.86;68.33
50356;BME280;36264;51.296;-0.602;2022-08-04T02:00:03;101156.56;;;18.82;68.14
50356;BME280;36264;51.296;-0.602;2022-08-04T02:02:29;101158.34;;;18.82;68.35
50356;BME280;36264;51.296;-0.602;2022-08-04T02:04:55;101153.28;;;18.79;68.01
50356;BME280;36264;51.296;-0.602;2022-08-04T02:07:31;101155.81;;;18.80;67.65
50356;BME280;36264;51.296;-0.602;2022-08-04T02:18:08;101152.78;;;18.72;67.36
50356;BME280;36264;51.296;-0.602;2022-08-04T02:20:43;101146.78;;;18.70;66.47
50356;BME280;36264;51.296;-0.602;2022-08-04T02:23:14;101145.34;;;18.64;66.89
50356;BME280;36264;51.296;-0.602;2022-08-04T02:25:51;101149.88;;;18.62;66.72
50356;BME280;36264;51.296;-0.602;2022-08-04T02:33:23;101146.66;;;18.57;66.62
50356;BME280;36264;51.296;-0.602;2022-08-04T02:35:56;101138.09;;;18.54;66.85
50356;BME280;36264;51.296;-0.602;2022-08-04T02:38:30;101145.97;;;18.54;66.78
50356;BME280;36264;51.296;-0.602;2022-08-04T02:41:00;101144.47;;;18.50;66.87
50356;BME280;36264;51.296;-0.602;2022-08-04T02:43:27;101135.88;;;18.46;67.12
50356;BME280;36264;51.296;-0.602;2022-08-04T02:45:55;101139.56;;;18.43;67.32
50356;BME280;36264;51.296;-0.602;2022-08-04T02:48:23;101138.03;;;18.39;67.40
50356;BME280;36264;51.296;-0.602;2022-08-04T02:50:54;101144.44;;;18.35;67.97
50356;BME280;36264;51.296;-0.602;2022-08-04T02:53:21;101145.25;;;18.36;67.85
50356;BME280;36264;51.296;-0.602;2022-08-04T02:55:47;101146.19;;;18.35;67.98
50356;BME280;36264;51.296;-0.602;2022-08-04T02:58:16;101155.03;;;18.34;67.75
50356;BME280;36264;51.296;-0.602;2022-08-04T03:00:44;101147.31;;;18.31;68.72
50356;BME280;36264;51.296;-0.602;2022-08-04T03:03:38;101149.88;;;18.32;68.20
50356;BME280;36264;51.296;-0.602;2022-08-04T03:08:59;101148.66;;;18.38;67.96
50356;BME280;36264;51.296;-0.602;2022-08-04T03:34:24;101135.69;;;18.19;68.66
50356;BME280;36264;51.296;-0.602;2022-08-04T03:37:10;101137.16;;;18.08;68.84
50356;BME280;36264;51.296;-0.602;2022-08-04T03:42:38;101129.88;;;17.82;68.96
50356;BME280;36264;51.296;-0.602;2022-08-04T03:45:20;101138.41;;;17.69;69.45
50356;BME280;36264;51.296;-0.602;2022-08-04T03:51:01;101133.19;;;17.36;70.77
50356;BME280;36264;51.296;-0.602;2022-08-04T03:57:15;101150.25;;;17.45;70.09
50356;BME280;36264;51.296;-0.602;2022-08-04T04:08:26;101158.31;;;17.58;69.44
50356;BME280;36264;51.296;-0.602;2022-08-04T04:11:36;101160.16;;;17.55;69.48
50356;BME280;36264;51.296;-0.602;2022-08-04T04:19:22;101158.16;;;17.61;69.49
50356;BME280;36264;51.296;-0.602;2022-08-04T04:28:31;101157.28;;;17.60;69.75
50356;BME280;36264;51.296;-0.602;2022-08-04T04:33:55;101164.75;;;17.52;69.59
50356;BME280;36264;51.296;-0.602;2022-08-04T04:39:19;101163.44;;;17.27;70.39
50356;BME280;36264;51.296;-0.602;2022-08-04T04:50:09;101178.66;;;16.86;71.16
50356;BME280;36264;51.296;-0.602;2022-08-04T04:52:40;101177.19;;;16.80;71.11
50356;BME280;36264;51.296;-0.602;2022-08-04T04:55:21;101181.03;;;16.73;71.54
50356;BME280;36264;51.296;-0.602;2022-08-04T04:57:53;101184.81;;;16.67;71.50
50356;BME280;36264;51.296;-0.602;2022-08-04T05:00:22;101179.88;;;16.61;71.42
50356;BME280;36264;51.296;-0.602;2022-08-04T05:03:08;101193.13;;;16.58;71.65
50356;BME280;36264;51.296;-0.602;2022-08-04T05:09:21;101195.81;;;16.39;72.19
50356;BME280;36264;51.296;-0.602;2022-08-04T05:12:02;101205.81;;;16.30;71.95
50356;BME280;36264;51.296;-0.602;2022-08-04T05:14:35;101195.69;;;16.23;71.92
50356;BME280;36264;51.296;-0.602;2022-08-04T05:17:32;101208.94;;;16.20;72.45
50356;BME280;36264;51.296;-0.602;2022-08-04T05:20:22;101211.84;;;16.14;72.63
50356;BME280;36264;51.296;-0.602;2022-08-04T05:22:59;101219.00;;;16.10;72.53
50356;BME280;36264;51.296;-0.602;2022-08-04T05:28:02;101227.09;;;16.05;72.31
50356;BME280;36264;51.296;-0.602;2022-08-04T05:30:36;101214.13;;;16.02;72.40
50356;BME280;36264;51.296;-0.602;2022-08-04T05:33:07;101221.03;;;16.03;72.58
50356;BME280;36264;51.296;-0.602;2022-08-04T05:35:39;101221.09;;;16.02;72.47
50356;BME280;36264;51.296;-0.602;2022-08-04T05:38:06;101217.31;;;16.09;72.31
50356;BME280;36264;51.296;-0.602;2022-08-04T05:40:37;101229.22;;;16.16;72.00
50356;BME280;36264;51.296;-0.602;2022-08-04T05:43:03;101222.97;;;16.19;72.07
50356;BME280;36264;51.296;-0.602;2022-08-04T05:45:33;101226.06;;;16.27;72.40
50356;BME280;36264;51.296;-0.602;2022-08-04T05:48:02;101225.63;;;16.36;71.85
50356;BME280;36264;51.296;-0.602;2022-08-04T05:50:29;101221.94;;;16.40;72.15
50356;BME280;36264;51.296;-0.602;2022-08-04T05:52:56;101227.59;;;16.50;72.26
50356;BME280;36264;51.296;-0.602;2022-08-04T05:55:24;101222.97;;;16.55;72.11
50356;BME280;36264;51.296;-0.602;2022-08-04T05:57:50;101219.44;;;16.56;72.19
50356;BME280;36264;51.296;-0.602;2022-08-04T06:00:17;101223.59;;;16.60;72.25
50356;BME280;36264;51.296;-0.602;2022-08-04T06:02:45;101226.22;;;16.60;73.45
50356;BME280;36264;51.296;-0.602;2022-08-04T06:05:13;101222.59;;;16.63;72.67
50356;BME280;36264;51.296;-0.602;2022-08-04T06:07:40;101233.56;;;16.71;72.97
50356;BME280;36264;51.296;-0.602;2022-08-04T06:10:06;101222.91;;;16.74;72.67
50356;BME280;36264;51.296;-0.602;2022-08-04T06:12:39;101223.53;;;16.79;73.24
50356;BME280;36264;51.296;-0.602;2022-08-04T06:15:07;101220.16;;;16.77;72.86
50356;BME280;36264;51.296;-0.602;2022-08-04T06:17:38;101223.38;;;16.82;72.96
50356;BME280;36264;51.296;-0.602;2022-08-04T06:20:06;101232.84;;;16.87;72.89
50356;BME280;36264;51.296;-0.602;2022-08-04T06:22:34;101227.63;;;16.85;73.60
50356;BME280;36264;51.296;-0.602;2022-08-04T06:25:04;101232.84;;;16.87;73.17
50356;BME280;36264;51.296;-0.602;2022-08-04T06:27:30;101230.84;;;16.92;72.93
50356;BME280;36264;51.296;-0.602;2022-08-04T06:29:57;101226.34;;;16.94;73.14
50356;BME280;36264;51.296;-0.602;2022-08-04T06:32:25;101241.72;;;17.01;72.88
50356;BME280;36264;51.296;-0.602;2022-08-04T06:34:58;101239.88;;;17.04;74.17
50356;BME280;36264;51.296;-0.602;2022-08-04T06:37:26;101246.81;;;17.05;73.88
50356;BME280;36264;51.296;-0.602;2022-08-04T06:39:52;101239.88;;;17.04;73.66
50356;BME280;36264;51.296;-0.602;2022-08-04T06:42:21;101241.56;;;17.05;73.48
50356;BME280;36264;51.296;-0.602;2022-08-04T06:44:49;101250.00;;;17.11;73.15
50356;BME280;36264;51.296;-0.602;2022-08-04T06:47:16;101248.91;;;17.15;73.77
50356;BME280;36264;51.296;-0.602;2022-08-04T06:49:44;101251.53;;;17.15;73.49
50356;BME280;36264;51.296;-0.602;2022-08-04T06:52:12;101249.59;;;17.19;73.21
50356;BME280;36264;51.296;-0.602;2022-08-04T06:54:41;101254.84;;;17.19;75.28
50356;BME280;36264;51.296;-0.602;2022-08-04T06:57:07;101260.66;;;17.26;73.18
50356;BME280;36264;51.296;-0.602;2022-08-04T06:59:34;101257.06;;;17.27;73.53
50356;BME280;36264;51.296;-0.602;2022-08-04T07:02:00;101258.09;;;17.24;73.30
50356;BME280;36264;51.296;-0.602;2022-08-04T07:04:26;101266.66;;;17.28;73.24
50356;BME280;36264;51.296;-0.602;2022-08-04T07:06:52;101257.88;;;17.29;73.31
50356;BME280;36264;51.296;-0.602;2022-08-04T07:09:18;101266.50;;;17.31;73.46
50356;BME280;36264;51.296;-0.602;2022-08-04T07:11:44;101267.41;;;17.30;73.06
50356;BME280;36264;51.296;-0.602;2022-08-04T07:14:11;101273.50;;;17.30;73.02
50356;BME280;36264;51.296;-0.602;2022-08-04T07:16:39;101266.44;;;17.32;72.87
50356;BME280;36264;51.296;-0.602;2022-08-04T07:19:06;101267.34;;;17.31;72.67
50356;BME280;36264;51.296;-0.602;2022-08-04T07:21:34;101277.47;;;17.39;72.43
50356;BME280;36264;51.296;-0.602;2022-08-04T07:23:59;101270.19;;;17.44;72.40
50356;BME280;36264;51.296;-0.602;2022-08-04T07:26:28;101277.00;;;17.48;72.34
50356;BME280;36264;51.296;-0.602;2022-08-04T07:28:53;101264.63;;;17.50;72.06
50356;BME280;36264;51.296;-0.602;2022-08-04T07:31:19;101270.38;;;17.57;71.80
50356;BME280;36264;51.296;-0.602;2022-08-04T07:33:47;101277.28;;;17.60;71.67
50356;BME280;36264;51.296;-0.602;2022-08-04T07:36:14;101266.00;;;17.58;71.47
50356;BME280;36264;51.296;-0.602;2022-08-04T07:38:41;101270.78;;;17.67;71.28
50356;BME280;36264;51.296;-0.602;2022-08-04T07:41:07;101272.63;;;17.65;71.01
50356;BME280;36264;51.296;-0.602;2022-08-04T07:43:35;101271.38;;;17.72;71.18
50356;BME280;36264;51.296;-0.602;2022-08-04T07:46:02;101275.69;;;17.73;70.60
50356;BME280;36264;51.296;-0.602;2022-08-04T07:48:27;101268.75;;;17.72;70.94
50356;BME280;36264;51.296;-0.602;2022-08-04T07:50:53;101268.59;;;17.75;70.80
50356;BME280;36264;51.296;-0.602;2022-08-04T07:53:20;101273.53;;;17.81;70.95
50356;BME280;36264;51.296;-0.602;2022-08-04T07:55:46;101270.75;;;17.84;70.45
50356;BME280;36264;51.296;-0.602;2022-08-04T07:58:11;101262.44;;;17.92;70.35
50356;BME280;36264;51.296;-0.602;2022-08-04T08:00:37;101271.56;;;18.02;70.26
50356;BME280;36264;51.296;-0.602;2022-08-04T08:03:03;101276.56;;;18.07;69.96
50356;BME280;36264;51.296;-0.602;2022-08-04T08:05:29;101264.25;;;18.07;69.66
50356;BME280;36264;51.296;-0.602;2022-08-04T08:07:55;101263.84;;;18.15;69.77
50356;BME280;36264;51.296;-0.602;2022-08-04T08:10:22;101265.63;;;18.15;69.16
50356;BME280;36264;51.296;-0.602;2022-08-04T08:12:49;101268.78;;;18.21;69.06
50356;BME280;36264;51.296;-0.602;2022-08-04T08:15:15;101265.16;;;18.24;68.98
50356;BME280;36264;51.296;-0.602;2022-08-04T08:17:41;101265.66;;;18.31;69.03
50356;BME280;36264;51.296;-0.602;2022-08-04T08:20:08;101257.84;;;18.29;68.68
50356;BME280;36264;51.296;-0.602;2022-08-04T08:22:35;101257.50;;;18.35;69.06
50356;BME280;36264;51.296;-0.602;2022-08-04T08:25:01;101259.72;;;18.43;68.93
50356;BME280;36264;51.296;-0.602;2022-08-04T08:27:26;101234.34;;;18.42;68.43
50356;BME280;36264;51.296;-0.602;2022-08-04T08:29:52;101256.19;;;18.58;68.48
50356;BME280;36264;51.296;-0.602;2022-08-04T08:32:19;101257.47;;;18.67;68.30
50356;BME280;36264;51.296;-0.602;2022-08-04T08:34:45;101253.72;;;18.71;67.94
50356;BME280;36264;51.296;-0.602;2022-08-04T08:39:44;101248.63;;;18.84;66.82
50356;BME280;36264;51.296;-0.602;2022-08-04T09:11:09;101274.28;;;19.55;65.60
50356;BME280;36264;51.296;-0.602;2022-08-04T09:13:44;101278.88;;;19.52;65.75
50356;BME280;36264;51.296;-0.602;2022-08-04T09:16:21;101274.56;;;19.51;64.63
50356;BME280;36264;51.296;-0.602;2022-08-04T09:21:42;101269.28;;;19.65;65.48
50356;BME280;36264;51.296;-0.602;2022-08-04T09:24:19;101265.41;;;19.71;64.37
50356;BME280;36264;51.296;-0.602;2022-08-04T09:27:00;101263.19;;;19.79;64.09
50356;BME280;36264;51.296;-0.602;2022-08-04T09:29:35;101278.25;;;19.91;65.13
50356;BME280;36264;51.296;-0.602;2022-08-04T09:32:26;101260.34;;;19.97;63.84
50356;BME280;36264;51.296;-0.602;2022-08-04T09:34:56;101273.53;;;20.11;63.97
50356;BME280;36264;51.296;-0.602;2022-08-04T09:37:45;101277.47;;;20.18;63.01
50356;BME280;36264;51.296;-0.602;2022-08-04T09:41:12;101276.16;;;20.25;62.12
50356;BME280;36264;51.296;-0.602;2022-08-04T09:43:40;101280.28;;;20.30;63.02
50356;BME280;36264;51.296;-0.602;2022-08-04T09:46:18;101279.53;;;20.27;61.13
50356;BME280;36264;51.296;-0.602;2022-08-04T09:48:52;101272.75;;;20.23;62.63
50356;BME280;36264;51.296;-0.602;2022-08-04T10:02:12;101278.13;;;20.91;61.49
50356;BME280;36264;51.296;-0.602;2022-08-04T10:04:41;101277.38;;;20.89;62.04
50356;BME280;36264;51.296;-0.602;2022-08-04T10:10:24;101298.28;;;20.65;61.93
50356;BME280;36264;51.296;-0.602;2022-08-04T10:15:35;101298.75;;;20.30;57.53
50356;BME280;36264;51.296;-0.602;2022-08-04T10:20:56;101298.84;;;20.55;61.49
50356;BME280;36264;51.296;-0.602;2022-08-04T10:28:50;101293.78;;;21.07;57.90
50356;BME280;36264;51.296;-0.602;2022-08-04T10:31:25;101292.28;;;21.03;58.67
50356;BME280;36264;51.296;-0.602;2022-08-04T10:33:59;101292.53;;;21.12;57.27
50356;BME280;36264;51.296;-0.602;2022-08-04T10:36:29;101291.88;;;21.09;58.79
50356;BME280;36264;51.296;-0.602;2022-08-04T10:46:35;101287.50;;;21.48;58.81
50356;BME280;36264;51.296;-0.602;2022-08-04T10:49:07;101291.22;;;21.58;58.59
50356;BME280;36264;51.296;-0.602;2022-08-04T10:57:35;101290.06;;;21.88;54.41
50356;BME280;36264;51.296;-0.602;2022-08-04T11:00:10;101298.94;;;21.87;55.41
50356;BME280;36264;51.296;-0.602;2022-08-04T11:02:43;101287.31;;;21.89;54.85
50356;BME280;36264;51.296;-0.602;2022-08-04T11:05:19;101304.53;;;22.08;57.13
50356;BME280;36264;51.296;-0.602;2022-08-04T11:07:51;101293.19;;;22.19;54.86
50356;BME280;36264;51.296;-0.602;2022-08-04T11:10:20;101295.94;;;22.17;56.46
50356;BME280;36264;51.296;-0.602;2022-08-04T11:12:48;101298.47;;;22.19;56.78
50356;BME280;36264;51.296;-0.602;2022-08-04T11:15:20;101298.88;;;22.25;56.91
50356;BME280;36264;51.296;-0.602;2022-08-04T11:18:01;101306.84;;;22.13;54.30
50356;BME280;36264;51.296;-0.602;2022-08-04T11:20:36;101299.25;;;21.95;55.96
50356;BME280;36264;51.296;-0.602;2022-08-04T11:23:07;101302.94;;;21.93;56.88
50356;BME280;36264;51.296;-0.602;2022-08-04T11:31:22;101292.31;;;22.31;52.27
50356;BME280;36264;51.296;-0.602;2022-08-04T11:34:03;101297.13;;;22.50;54.48
50356;BME280;36264;51.296;-0.602;2022-08-04T11:39:28;101306.88;;;22.74;54.55
50356;BME280;36264;51.296;-0.602;2022-08-04T11:42:12;101298.97;;;22.85;55.07
50356;BME280;36264;51.296;-0.602;2022-08-04T11:45:01;101292.75;;;22.97;51.72
50356;BME280;36264;51.296;-0.602;2022-08-04T11:50:11;101309.22;;;23.14;50.44
50356;BME280;36264;51.296;-0.602;2022-08-04T11:52:40;101296.66;;;23.05;52.09
50356;BME280;36264;51.296;-0.602;2022-08-04T11:55:09;101296.34;;;23.09;53.15
50356;BME280;36264;51.296;-0.602;2022-08-04T11:57:36;101302.28;;;23.24;53.53
50356;BME280;36264;51.296;-0.602;2022-08-04T12:00:06;101304.47;;;23.42;52.55
50356;BME280;36264;51.296;-0.602;2022-08-04T12:05:03;101302.31;;;23.58;52.67
50356;BME280;36264;51.296;-0.602;2022-08-04T12:10:35;101296.78;;;23.61;52.17
50356;BME280;36264;51.296;-0.602;2022-08-04T12:15:56;101303.97;;;23.25;48.90
50356;BME280;36264;51.296;-0.602;2022-08-04T12:18:53;101301.53;;;23.11;46.33
50356;BME280;36264;51.296;-0.602;2022-08-04T12:21:39;101302.91;;;23.04;50.40
50356;BME280;36264;51.296;-0.602;2022-08-04T12:24:26;101294.25;;;23.02;47.31
50356;BME280;36264;51.296;-0.602;2022-08-04T12:26:56;101300.66;;;23.10;50.54
50356;BME280;36264;51.296;-0.602;2022-08-04T12:29:24;101305.53;;;23.28;50.70
50356;BME280;36264;51.296;-0.602;2022-08-04T12:31:58;101306.41;;;23.40;50.96
50356;BME280;36264;51.296;-0.602;2022-08-04T12:34:33;101309.31;;;23.48;45.97
50356;BME280;36264;51.296;-0.602;2022-08-04T12:39:53;101314.03;;;23.44;49.43
50356;BME280;36264;51.296;-0.602;2022-08-04T12:42:33;101315.31;;;23.39;48.62
50356;BME280;36264;51.296;-0.602;2022-08-04T12:45:06;101319.66;;;23.40;49.47
50356;BME280;36264;51.296;-0.602;2022-08-04T12:47:34;101308.84;;;23.54;50.08
50356;BME280;36264;51.296;-0.602;2022-08-04T12:50:01;101308.03;;;23.76;49.33
50356;BME280;36264;51.296;-0.602;2022-08-04T12:52:29;101307.22;;;23.98;48.74
50356;BME280;36264;51.296;-0.602;2022-08-04T12:54:56;101304.44;;;24.00;47.71
50356;BME280;36264;51.296;-0.602;2022-08-04T12:57:23;101300.22;;;23.97;46.92
50356;BME280;36264;51.296;-0.602;2022-08-04T12:59:49;101306.22;;;23.99;47.25
50356;BME280;36264;51.296;-0.602;2022-08-04T13:04:48;101310.19;;;23.82;47.84
50356;BME280;36264;51.296;-0.602;2022-08-04T13:07:18;101302.38;;;23.81;47.64
50356;BME280;36264;51.296;-0.602;2022-08-04T13:09:45;101309.81;;;23.76;47.92
50356;BME280;36264;51.296;-0.602;2022-08-04T13:12:13;101307.91;;;23.78;47.91
50356;BME280;36264;51.296;-0.602;2022-08-04T13:14:41;101300.44;;;23.83;47.18
50356;BME280;36264;51.296;-0.602;2022-08-04T13:17:10;101298.75;;;23.93;46.99
50356;BME280;36264;51.296;-0.602;2022-08-04T13:19:36;101294.91;;;23.97;47.52
50356;BME280;36264;51.296;-0.602;2022-08-04T13:22:02;101296.97;;;24.05;47.78
50356;BME280;36264;51.296;-0.602;2022-08-04T13:24:30;101299.50;;;24.07;47.18
50356;BME280;36264;51.296;-0.602;2022-08-04T13:29:24;101304.53;;;24.21;46.30
50356;BME280;36264;51.296;-0.602;2022-08-04T13:31:50;101302.50;;;24.13;46.97
50356;BME280;36264;51.296;-0.602;2022-08-04T13:34:17;101304.56;;;24.10;47.02
50356;BME280;36264;51.296;-0.602;2022-08-04T13:36:44;101304.31;;;24.13;47.91
50356;BME280;36264;51.296;-0.602;2022-08-04T13:39:19;101300.19;;;24.20;46.19
50356;BME280;36264;51.296;-0.602;2022-08-04T13:41:50;101295.09;;;24.28;47.22
50356;BME280;36264;51.296;-0.602;2022-08-04T13:44:29;101289.66;;;24.41;46.06
50356;BME280;36264;51.296;-0.602;2022-08-04T13:46:59;101289.16;;;24.36;42.16
50356;BME280;36264;51.296;-0.602;2022-08-04T13:49:28;101294.25;;;24.28;46.22
50356;BME280;36264;51.296;-0.602;2022-08-04T13:52:00;101298.75;;;24.27;45.45
50356;BME280;36264;51.296;-0.602;2022-08-04T13:54:40;101309.59;;;24.24;44.74
50356;BME280;36264;51.296;-0.602;2022-08-04T13:57:17;101297.63;;;24.30;46.13
50356;BME280;36264;51.296;-0.602;2022-08-04T13:59:47;101293.53;;;24.37;45.73
50356;BME280;36264;51.296;-0.602;2022-08-04T14:02:27;101288.09;;;24.38;43.70
50356;BME280;36264;51.296;-0.602;2022-08-04T14:05:01;101299.69;;;24.26;45.34
50356;BME280;36264;51.296;-0.602;2022-08-04T14:07:30;101295.59;;;24.33;44.51
50356;BME280;36264;51.296;-0.602;2022-08-04T14:09:56;101295.50;;;24.67;45.18
50356;BME280;36264;51.296;-0.602;2022-08-04T14:12:22;101291.28;;;24.97;45.21
50356;BME280;36264;51.296;-0.602;2022-08-04T14:14:52;101282.44;;;25.29;42.38
50356;BME280;36264;51.296;-0.602;2022-08-04T14:17:23;101283.69;;;25.86;41.37
50356;BME280;36264;51.296;-0.602;2022-08-04T14:27:24;101292.97;;;25.61;43.36
50356;BME280;36264;51.296;-0.602;2022-08-04T14:29:49;101292.59;;;25.97;44.79
50356;BME280;36264;51.296;-0.602;2022-08-04T14:32:15;101293.22;;;26.20;43.90
50356;BME280;36264;51.296;-0.602;2022-08-04T14:34:43;101296.06;;;26.28;44.11
50356;BME280;36264;51.296;-0.602;2022-08-04T14:37:11;101284.16;;;26.42;44.11
50356;BME280;36264;51.296;-0.602;2022-08-04T14:39:41;101296.50;;;26.63;44.04
50356;BME280;36264;51.296;-0.602;2022-08-04T14:42:08;101286.59;;;26.74;42.22
50356;BME280;36264;51.296;-0.602;2022-08-04T14:44:56;101280.25;;;26.75;39.42
50356;BME280;36264;51.296;-0.602;2022-08-04T14:47:42;101294.00;;;26.71;39.53
50356;BME280;36264;51.296;-0.602;2022-08-04T14:50:08;101285.97;;;26.61;42.68
50356;BME280;36264;51.296;-0.602;2022-08-04T14:52:34;101285.84;;;26.53;41.88
50356;BME280;36264;51.296;-0.602;2022-08-04T14:55:21;101288.28;;;26.06;37.80
50356;BME280;36264;51.296;-0.602;2022-08-04T14:57:48;101292.81;;;25.84;42.67
50356;BME280;36264;51.296;-0.602;2022-08-04T15:00:33;101288.38;;;25.63;40.66
50356;BME280;36264;51.296;-0.602;2022-08-04T15:03:03;101284.91;;;25.42;42.82
50356;BME280;36264;51.296;-0.602;2022-08-04T15:05:29;101290.66;;;25.26;43.44
50356;BME280;36264;51.296;-0.602;2022-08-04T15:07:56;101294.59;;;25.10;43.33
50356;BME280;36264;51.296;-0.602;2022-08-04T15:10:22;101300.28;;;25.06;43.41
50356;BME280;36264;51.296;-0.602;2022-08-04T15:12:48;101295.38;;;25.01;42.95
50356;BME280;36264;51.296;-0.602;2022-08-04T15:15:14;101294.19;;;24.94;42.83
50356;BME280;36264;51.296;-0.602;2022-08-04T15:17:41;101285.03;;;24.98;43.18
50356;BME280;36264;51.296;-0.602;2022-08-04T15:20:07;101282.44;;;25.29;43.27
50356;BME280;36264;51.296;-0.602;2022-08-04T15:22:33;101292.13;;;25.61;42.46
50356;BME280;36264;51.296;-0.602;2022-08-04T15:24:59;101291.09;;;25.83;43.01
50356;BME280;36264;51.296;-0.602;2022-08-04T15:27:27;101292.09;;;26.23;43.15
50356;BME280;36264;51.296;-0.602;2022-08-04T15:29:56;101291.59;;;26.58;43.16
50356;BME280;36264;51.296;-0.602;2022-08-04T15:32:25;101296.25;;;26.66;40.32
50356;BME280;36264;51.296;-0.602;2022-08-04T15:34:51;101300.97;;;26.43;41.74
50356;BME280;36264;51.296;-0.602;2022-08-04T15:37:27;101307.78;;;26.16;40.40
50356;BME280;36264;51.296;-0.602;2022-08-04T15:39:59;101298.16;;;25.94;41.63
50356;BME280;36264;51.296;-0.602;2022-08-04T15:42:40;101309.69;;;25.73;40.63
50356;BME280;36264;51.296;-0.602;2022-08-04T15:45:13;101309.91;;;25.60;42.01
50356;BME280;36264;51.296;-0.602;2022-08-04T15:47:41;101287.88;;;25.48;42.68
50356;BME280;36264;51.296;-0.602;2022-08-04T15:50:11;101304.69;;;25.49;41.92
50356;BME280;36264;51.296;-0.602;2022-08-04T15:55:37;101303.38;;;25.22;40.17
50356;BME280;36264;51.296;-0.602;2022-08-04T15:58:05;101314.38;;;25.18;41.85
50356;BME280;36264;51.296;-0.602;2022-08-04T16:18:52;101321.50;;;24.52;41.09
50356;BME280;36264;51.296;-0.602;2022-08-04T16:21:23;101329.59;;;24.51;41.56
50356;BME280;36264;51.296;-0.602;2022-08-04T16:29:46;101340.34;;;24.27;40.99
50356;BME280;36264;51.296;-0.602;2022-08-04T16:32:24;101340.75;;;24.22;38.39
50356;BME280;36264;51.296;-0.602;2022-08-04T16:37:37;101340.22;;;24.17;39.44
50356;BME280;36264;51.296;-0.602;2022-08-04T16:40:28;101340.34;;;24.15;39.43
50356;BME280;36264;51.296;-0.602;2022-08-04T16:45:52;101350.38;;;24.12;39.18
50356;BME280;36264;51.296;-0.602;2022-08-04T16:48:28;101342.28;;;24.13;40.09
50356;BME280;36264;51.296;-0.602;2022-08-04T16:51:11;101349.31;;;24.14;39.34
50356;BME280;36264;51.296;-0.602;2022-08-04T16:53:44;101344.59;;;24.18;40.61
50356;BME280;36264;51.296;-0.602;2022-08-04T16:56:11;101348.94;;;24.19;40.61
50356;BME280;36264;51.296;-0.602;2022-08-04T16:58:38;101346.50;;;24.27;40.28
50356;BME280;36264;51.296;-0.602;2022-08-04T17:01:11;101357.59;;;24.44;40.27
50356;BME280;36264;51.296;-0.602;2022-08-04T17:03:38;101356.38;;;24.48;40.71
50356;BME280;36264;51.296;-0.602;2022-08-04T17:08:32;101346.56;;;24.82;39.82
50356;BME280;36264;51.296;-0.602;2022-08-04T17:10:59;101340.84;;;25.19;39.50
50356;BME280;36264;51.296;-0.602;2022-08-04T17:13:29;101340.69;;;25.32;38.84
50356;BME280;36264;51.296;-0.602;2022-08-04T17:15:57;101344.03;;;25.34;39.05
50356;BME280;36264;51.296;-0.602;2022-08-04T17:18:29;101343.78;;;25.37;38.29
50356;BME280;36264;51.296;-0.602;2022-08-04T17:20:58;101341.66;;;25.20;38.52
50356;BME280;36264;51.296;-0.602;2022-08-04T17:23:31;101339.44;;;25.04;38.14
50356;BME280;36264;51.296;-0.602;2022-08-04T17:26:20;101344.69;;;24.94;38.85
50356;BME280;36264;51.296;-0.602;2022-08-04T17:28:47;101346.56;;;24.82;39.47
50356;BME280;36264;51.296;-0.602;2022-08-04T17:31:13;101340.41;;;24.70;39.48
50356;BME280;36264;51.296;-0.602;2022-08-04T17:33:47;101348.00;;;24.75;39.04
50356;BME280;36264;51.296;-0.602;2022-08-04T17:36:15;101347.00;;;24.87;39.21
50356;BME280;36264;51.296;-0.602;2022-08-04T17:38:43;101344.34;;;24.87;39.83